Time;durP1;ratioP1;P1;durP2;ratioP2;P2;SDS_P1;SDS_P2;PMS_P1;PMS_P2;Temp;Humidity;BMP_temperature;BMP_pressure;BME280_temperature;BME280_humidity;BME280_pressure;Samples;Min_cycle;Max_cycle;Signal;HPM_P1;HPM_P2
2023/09/15 00:00:40;;;;;;;5.00;4.53;;;;;;;21.36;59.64;93664.78;526210;28;876;-40
2023/09/15 00:00:48;;;;;;;6.53;4.35;;;;;;;21.34;59.61;93661.84;524936;28;2094;-40
2023/09/15 00:01:04;;;;;;;5.90;4.22;;;;;;;21.34;59.63;93659.03;526273;28;816;-40
2023/09/15 00:01:21;;;;;;;4.97;4.47;;;;;;;21.33;59.65;93666.03;526134;28;873;-40
2023/09/15 00:01:39;;;;;;;5.03;4.53;;;;;;;21.32;59.58;93658.94;526025;28;907;-40
2023/09/15 00:01:54;;;;;;;5.05;4.53;;;;;;;21.32;59.59;93661.75;526035;28;947;-40
2023/09/15 00:02:10;;;;;;;5.27;4.77;;;;;;;21.30;59.54;93670.06;525988;28;859;-40
2023/09/15 00:02:25;;;;;;;5.47;4.67;;;;;;;21.30;59.61;93667.97;526258;28;828;-40
2023/09/15 00:02:41;;;;;;;6.50;4.78;;;;;;;21.30;59.62;93664.44;526222;28;899;-40
2023/09/15 00:02:58;;;;;;;5.95;5.05;;;;;;;21.29;59.49;93668.59;526213;28;942;-40
2023/09/15 00:03:13;;;;;;;5.45;4.75;;;;;;;21.28;59.63;93672.75;526248;28;915;-40
2023/09/15 00:03:28;;;;;;;7.20;4.77;;;;;;;21.26;59.50;93667.75;526282;28;789;-40
2023/09/15 00:03:44;;;;;;;6.07;4.50;;;;;;;21.27;59.58;93662.88;526276;28;1185;-40
2023/09/15 00:04:03;;;;;;;4.93;4.30;;;;;;;21.27;59.42;93671.28;526162;28;996;-40
2023/09/15 00:04:18;;;;;;;4.97;4.25;;;;;;;21.26;59.55;93670.56;526198;28;970;-40
2023/09/15 00:04:33;;;;;;;5.00;4.50;;;;;;;21.26;59.42;93664.22;526237;28;915;-40
2023/09/15 00:04:49;;;;;;;4.97;4.47;;;;;;;21.24;59.52;93664.81;526157;28;1653;-40
2023/09/15 00:05:07;;;;;;;4.95;4.47;;;;;;;21.24;59.59;93672.50;526297;28;860;-40
2023/09/15 00:05:28;;;;;;;5.60;4.85;;;;;;;21.23;59.57;93666.16;526240;28;833;-40
2023/09/15 00:05:46;;;;;;;5.50;4.90;;;;;;;21.22;59.70;93667.53;526243;28;1120;-40
2023/09/15 00:06:01;;;;;;;7.47;4.80;;;;;;;21.22;59.69;93667.53;526197;28;958;-40
2023/09/15 00:06:17;;;;;;;8.33;4.40;;;;;;;21.22;59.86;93669.59;526228;28;808;-40
2023/09/15 00:06:35;;;;;;;5.93;4.43;;;;;;;21.21;59.76;93666.03;526268;28;828;-40
2023/09/15 00:06:50;;;;;;;5.57;4.95;;;;;;;21.21;59.78;93665.31;526192;28;1716;-40
2023/09/15 00:07:06;;;;;;;5.73;5.00;;;;;;;21.19;59.81;93671.53;526265;28;836;-40
2023/09/15 00:07:21;;;;;;;5.27;4.77;;;;;;;21.18;59.76;93667.25;526187;28;1510;-40
2023/09/15 00:07:37;;;;;;;5.25;4.70;;;;;;;21.18;59.86;93667.25;526289;28;980;-40
2023/09/15 00:07:52;;;;;;;5.13;4.60;;;;;;;21.16;59.91;93667.16;526261;28;848;-40
2023/09/15 00:08:08;;;;;;;4.72;4.32;;;;;;;21.17;59.86;93665.06;526154;28;982;-40
2023/09/15 00:08:23;;;;;;;5.07;4.57;;;;;;;21.17;59.92;93673.50;526243;28;829;-41
2023/09/15 00:08:38;;;;;;;5.00;4.50;;;;;;;21.17;59.96;93667.88;526248;28;952;-40
2023/09/15 00:08:54;;;;;;;5.32;4.00;;;;;;;21.16;59.90;93674.88;526288;28;813;-40
2023/09/15 00:09:15;;;;;;;7.53;4.57;;;;;;;21.14;59.93;93673.38;526183;28;792;-40
2023/09/15 00:09:31;;;;;;;6.53;4.68;;;;;;;21.13;60.07;93671.94;526242;28;937;-40
2023/09/15 00:09:47;;;;;;;5.55;4.28;;;;;;;21.11;60.06;93674.59;526201;28;868;-40
2023/09/15 00:10:05;;;;;;;7.20;5.00;;;;;;;21.12;60.02;93670.47;526299;28;793;-40
2023/09/15 00:10:21;;;;;;;6.25;4.72;;;;;;;21.10;60.03;93667.53;526171;28;989;-40
2023/09/15 00:10:40;;;;;;;5.15;4.53;;;;;;;21.10;59.99;93666.81;526249;28;942;-40
2023/09/15 00:10:56;;;;;;;5.85;4.68;;;;;;;21.06;60.05;93653.28;526245;28;839;-40
2023/09/15 00:11:15;;;;;;;5.03;4.43;;;;;;;20.95;60.06;93651.19;526263;28;796;-40
2023/09/15 00:11:39;;;;;;;4.95;4.45;;;;;;;20.99;60.03;93659.84;526094;28;943;-40
2023/09/15 00:11:54;;;;;;;6.38;4.45;;;;;;;21.07;59.90;93665.94;526266;28;918;-40
2023/09/15 00:12:10;;;;;;;5.00;4.47;;;;;;;21.08;59.94;93666.69;526141;28;900;-40
2023/09/15 00:12:26;;;;;;;5.60;4.72;;;;;;;21.08;59.88;93672.28;526325;28;839;-40
2023/09/15 00:12:42;;;;;;;6.00;4.90;;;;;;;21.07;59.89;93671.56;526185;28;923;-40
2023/09/15 00:13:00;;;;;;;5.30;4.80;;;;;;;21.07;59.94;93662.44;526265;28;789;-40
2023/09/15 00:13:16;;;;;;;4.95;4.25;;;;;;;21.06;59.97;93664.50;526271;28;859;-40
2023/09/15 00:13:32;;;;;;;4.80;4.20;;;;;;;21.05;59.92;93663.03;526225;28;1320;-40
2023/09/15 00:13:47;;;;;;;5.07;4.45;;;;;;;21.05;60.06;93662.31;526276;28;797;-40
2023/09/15 00:14:02;;;;;;;5.70;4.67;;;;;;;21.04;60.10;93658.75;526220;28;916;-40
2023/09/15 00:14:18;;;;;;;5.53;4.85;;;;;;;21.04;60.01;93666.44;526184;28;776;-40
2023/09/15 00:14:38;;;;;;;8.95;5.32;;;;;;;21.02;60.03;93661.44;526250;28;1653;-40
2023/09/15 00:14:53;;;;;;;8.52;5.13;;;;;;;20.99;60.05;93661.91;526229;28;884;-40
2023/09/15 00:15:10;;;;;;;7.32;4.38;;;;;;;20.99;60.14;93661.91;526248;28;829;-40
2023/09/15 00:15:26;;;;;;;6.85;4.70;;;;;;;20.98;60.08;93666.06;526130;28;888;-40
2023/09/15 00:15:41;;;;;;;5.03;4.53;;;;;;;20.97;60.03;93662.53;526053;28;942;-40
2023/09/15 00:15:56;;;;;;;4.50;4.10;;;;;;;20.95;60.08;93662.41;526092;28;829;-40
2023/09/15 00:16:12;;;;;;;4.53;4.13;;;;;;;20.96;59.97;93666.66;526104;28;789;-40
2023/09/15 00:16:27;;;;;;;4.83;4.33;;;;;;;20.96;60.08;93663.16;525974;28;964;-40
2023/09/15 00:16:44;;;;;;;6.20;4.63;;;;;;;20.95;60.08;93658.88;526061;28;864;-40
2023/09/15 00:16:59;;;;;;;5.53;4.30;;;;;;;20.94;60.10;93663.75;526002;28;983;-40
2023/09/15 00:17:14;;;;;;;4.90;4.40;;;;;;;20.93;60.02;93658.75;526087;28;857;-40
2023/09/15 00:17:30;;;;;;;5.13;4.73;;;;;;;20.92;60.02;93663.63;526181;28;919;-40
2023/09/15 00:17:45;;;;;;;4.60;4.18;;;;;;;20.92;59.94;93662.91;526178;28;1914;-40
2023/09/15 00:18:01;;;;;;;4.73;4.10;;;;;;;20.90;59.95;93660.69;526126;28;921;-40
2023/09/15 00:18:18;;;;;;;4.90;4.40;;;;;;;20.82;59.95;93646.19;526196;28;896;-40
2023/09/15 00:18:33;;;;;;;4.80;4.40;;;;;;;20.90;59.98;93668.38;526167;28;902;-40
2023/09/15 00:18:50;;;;;;;5.07;4.43;;;;;;;20.89;59.92;93662.06;526202;28;1566;-40
2023/09/15 00:19:06;;;;;;;6.28;4.28;;;;;;;20.88;59.99;93669.00;526238;28;844;-40
2023/09/15 00:19:22;;;;;;;6.32;4.13;;;;;;;20.87;60.04;93661.94;526075;28;860;-40
2023/09/15 00:19:40;;;;;;;5.10;4.17;;;;;;;20.87;59.93;93661.94;526142;28;936;-40
2023/09/15 00:19:55;;;;;;;5.32;4.10;;;;;;;20.86;59.95;93665.34;526186;28;978;-40
2023/09/15 00:20:14;;;;;;;5.07;4.25;;;;;;;20.86;60.02;93665.34;526147;28;891;-40
2023/09/15 00:20:30;;;;;;;4.80;4.40;;;;;;;20.84;60.04;93660.34;526184;28;892;-40
2023/09/15 00:20:45;;;;;;;5.30;4.78;;;;;;;20.83;60.11;93667.31;526236;28;883;-40
2023/09/15 00:21:00;;;;;;;4.90;4.35;;;;;;;20.83;60.14;93666.56;526221;28;809;-40
2023/09/15 00:21:16;;;;;;;5.03;4.03;;;;;;;20.81;60.07;93661.56;526192;28;844;-40
2023/09/15 00:21:33;;;;;;;5.10;4.20;;;;;;;20.82;60.20;93665.84;526157;28;800;-40
2023/09/15 00:21:48;;;;;;;4.57;4.18;;;;;;;20.79;60.15;93655.81;526128;28;923;-40
2023/09/15 00:22:03;;;;;;;4.77;4.20;;;;;;;20.77;60.17;93663.41;526250;28;808;-40
2023/09/15 00:22:19;;;;;;;4.68;4.07;;;;;;;20.77;60.19;93661.31;526078;28;1194;-40
2023/09/15 00:22:34;;;;;;;4.40;4.00;;;;;;;20.75;60.27;93658.41;526256;28;1159;-40
2023/09/15 00:22:52;;;;;;;4.55;4.10;;;;;;;20.76;60.28;93659.88;526140;28;904;-40
2023/09/15 00:23:07;;;;;;;7.03;4.32;;;;;;;20.75;60.28;93655.59;526142;28;982;-40
2023/09/15 00:23:23;;;;;;;6.50;4.57;;;;;;;20.74;60.45;93662.56;526231;28;825;-40
2023/09/15 00:23:38;;;;;;;6.40;4.53;;;;;;;20.74;60.41;93659.75;526146;28;927;-40
2023/09/15 00:23:53;;;;;;;7.37;4.30;;;;;;;20.74;60.44;93664.63;526186;28;942;-40
2023/09/15 00:24:09;;;;;;;6.78;4.40;;;;;;;20.72;60.33;93667.31;526144;28;797;-40
2023/09/15 00:24:25;;;;;;;6.20;4.83;;;;;;;20.72;60.44;93668.06;526288;28;839;-40
2023/09/15 00:24:41;;;;;;;6.15;4.80;;;;;;;20.73;60.44;93663.16;526153;28;971;-40
2023/09/15 00:24:56;;;;;;;8.00;4.72;;;;;;;20.71;60.49;93663.75;526255;28;785;-40
2023/09/15 00:25:11;;;;;;;8.60;4.80;;;;;;;20.71;60.43;93671.44;526108;28;861;-40
2023/09/15 00:25:29;;;;;;;5.23;4.13;;;;;;;20.69;60.57;93669.25;526220;28;812;-40
2023/09/15 00:25:45;;;;;;;4.63;3.90;;;;;;;20.69;60.59;93669.25;526191;28;936;-40
2023/09/15 00:26:02;;;;;;;4.43;4.03;;;;;;;20.63;60.53;93663.28;526204;28;825;-40
2023/09/15 00:26:23;;;;;;;4.68;4.28;;;;;;;20.70;60.68;93665.13;526320;28;1236;-40
2023/09/15 00:26:38;;;;;;;6.47;4.63;;;;;;;20.70;60.62;93664.38;528136;28;950;-40
2023/09/15 00:26:54;;;;;;;6.43;4.70;;;;;;;20.70;60.70;93661.59;528257;28;801;-40
2023/09/15 00:27:09;;;;;;;5.20;4.50;;;;;;;20.69;60.70;93669.25;528193;28;1331;-40
2023/09/15 00:27:25;;;;;;;5.10;4.60;;;;;;;20.70;60.68;93672.81;528302;27;912;-40
2023/09/15 00:27:40;;;;;;;5.17;4.53;;;;;;;20.70;60.78;93667.94;528299;28;828;-40
2023/09/15 00:27:58;;;;;;;5.43;4.38;;;;;;;20.70;60.83;93667.94;528105;28;1409;-40
2023/09/15 00:28:13;;;;;;;5.68;4.40;;;;;;;20.70;60.86;93665.13;528277;28;948;-40
2023/09/15 00:28:29;;;;;;;5.75;4.72;;;;;;;20.70;60.94;93664.38;528270;28;1045;-40
2023/09/15 00:28:44;;;;;;;5.20;4.70;;;;;;;20.70;60.85;93667.94;528363;28;840;-40
2023/09/15 00:29:04;;;;;;;5.07;4.28;;;;;;;20.61;60.74;93656.81;528268;28;860;-40
2023/09/15 00:29:19;;;;;;;5.85;4.40;;;;;;;20.66;60.85;93666.97;528311;28;904;-40
2023/09/15 00:29:35;;;;;;;6.40;4.57;;;;;;;20.68;60.86;93664.97;528277;28;867;-40
2023/09/15 00:29:50;;;;;;;5.32;4.57;;;;;;;20.67;60.81;93668.41;528319;28;784;-40
2023/09/15 00:30:09;;;;;;;5.10;4.60;;;;;;;20.66;60.92;93662.06;528313;27;831;-40
2023/09/15 00:30:25;;;;;;;5.45;4.30;;;;;;;20.66;60.97;93669.75;528343;28;1215;-40
2023/09/15 00:30:41;;;;;;;5.57;4.03;;;;;;;20.66;61.00;93670.47;528294;28;879;-40
2023/09/15 00:30:59;;;;;;;5.33;4.13;;;;;;;20.57;60.71;93657.31;528343;28;794;-40
2023/09/15 00:31:15;;;;;;;4.65;4.15;;;;;;;20.66;60.83;93659.25;528254;28;1724;-40
2023/09/15 00:31:31;;;;;;;5.25;4.30;;;;;;;20.67;60.68;93660.72;528270;28;942;-40
2023/09/15 00:31:46;;;;;;;5.40;4.70;;;;;;;20.67;60.82;93665.59;528209;28;934;-40
2023/09/15 00:32:02;;;;;;;6.10;5.20;;;;;;;20.67;60.78;93663.53;528263;28;879;-40
2023/09/15 00:32:17;;;;;;;6.70;5.22;;;;;;;20.66;60.75;93667.66;528318;27;874;-40
2023/09/15 00:32:33;;;;;;;6.33;5.10;;;;;;;20.66;60.50;93670.47;528273;28;844;-40
2023/09/15 00:32:49;;;;;;;5.68;4.85;;;;;;;20.37;60.81;93622.44;528292;28;835;-40
2023/09/15 00:33:04;;;;;;;5.43;4.93;;;;;;;20.66;60.79;93664.84;528282;28;903;-40
2023/09/15 00:33:20;;;;;;;5.43;4.67;;;;;;;20.65;60.78;93666.22;528233;28;863;-40
2023/09/15 00:33:35;;;;;;;5.87;4.70;;;;;;;20.65;60.82;93666.22;528344;28;831;-40
2023/09/15 00:33:51;;;;;;;6.75;4.65;;;;;;;20.66;60.85;93661.34;528206;28;931;-40
2023/09/15 00:34:06;;;;;;;5.73;4.67;;;;;;;20.66;60.80;93664.16;528264;28;1613;-40
2023/09/15 00:34:21;;;;;;;5.60;5.10;;;;;;;20.65;60.75;93666.22;528284;28;832;-40
2023/09/15 00:34:37;;;;;;;5.03;4.50;;;;;;;20.65;61.01;93665.47;528300;28;777;-40
2023/09/15 00:34:52;;;;;;;5.37;4.13;;;;;;;20.65;60.93;93666.22;528242;28;974;-40
2023/09/15 00:35:08;;;;;;;5.40;4.55;;;;;;;20.64;61.07;93664.75;528192;28;1046;-40
2023/09/15 00:35:27;;;;;;;5.00;4.60;;;;;;;20.65;60.92;93668.28;528235;28;1531;-40
2023/09/15 00:35:42;;;;;;;4.87;4.37;;;;;;;20.64;61.12;93667.53;528210;28;875;-40
2023/09/15 00:36:00;;;;;;;5.10;4.60;;;;;;;20.59;61.00;93657.44;528280;28;797;-42
2023/09/15 00:36:15;;;;;;;5.18;4.63;;;;;;;20.64;61.10;93670.34;528276;28;884;-41
2023/09/15 00:36:31;;;;;;;5.07;4.55;;;;;;;20.64;61.13;93673.16;528273;27;812;-42
2023/09/15 00:36:49;;;;;;;5.20;4.70;;;;;;;20.64;61.21;93678.78;528147;27;915;-42
2023/09/15 00:37:04;;;;;;;5.40;4.50;;;;;;;20.64;61.13;93672.44;528229;28;942;-40
2023/09/15 00:37:20;;;;;;;5.80;4.60;;;;;;;20.63;61.14;93670.97;528167;28;899;-41
2023/09/15 00:37:35;;;;;;;5.18;4.68;;;;;;;20.61;60.98;93677.19;528307;28;851;-41
2023/09/15 00:37:51;;;;;;;4.67;4.27;;;;;;;20.61;61.19;93671.59;528118;28;1971;-41
2023/09/15 00:38:06;;;;;;;4.43;4.03;;;;;;;20.62;61.18;93669.53;528251;28;914;-41
2023/09/15 00:38:22;;;;;;;5.05;4.55;;;;;;;20.62;61.02;93680.75;528245;27;893;-41
2023/09/15 00:38:37;;;;;;;5.43;4.93;;;;;;;20.61;61.19;93671.59;528230;28;800;-41
2023/09/15 00:38:54;;;;;;;5.53;4.93;;;;;;;20.61;61.10;93673.66;528258;28;978;-41
2023/09/15 00:39:09;;;;;;;5.22;4.57;;;;;;;20.62;61.17;93669.53;528309;28;836;-41
2023/09/15 00:39:25;;;;;;;5.27;4.60;;;;;;;20.61;61.05;93674.41;528199;28;820;-41
2023/09/15 00:39:40;;;;;;;5.25;4.70;;;;;;;20.59;61.04;93663.06;528223;28;895;-41
2023/09/15 00:39:56;;;;;;;5.23;4.67;;;;;;;20.61;60.89;93674.41;528244;28;899;-41
2023/09/15 00:40:13;;;;;;;5.63;4.80;;;;;;;20.61;60.80;93665.97;528255;28;841;-41
2023/09/15 00:40:29;;;;;;;5.05;4.55;;;;;;;20.62;60.79;93672.31;528218;28;883;-41
2023/09/15 00:40:44;;;;;;;4.87;4.37;;;;;;;20.62;60.88;93666.72;528332;28;804;-41
2023/09/15 00:40:59;;;;;;;4.97;4.47;;;;;;;20.61;60.85;93668.78;528250;28;1016;-41
2023/09/15 00:41:15;;;;;;;5.17;4.67;;;;;;;20.61;60.97;93663.16;528225;28;946;-41
2023/09/15 00:41:30;;;;;;;5.53;4.87;;;;;;;20.63;60.94;93662.56;528186;28;899;-41
2023/09/15 00:41:46;;;;;;;5.95;4.80;;;;;;;20.62;60.95;93670.22;528217;28;887;-41
2023/09/15 00:42:01;;;;;;;4.97;4.40;;;;;;;20.62;60.96;93675.84;528212;28;1011;-39
2023/09/15 00:42:19;;;;;;;5.05;4.38;;;;;;;20.63;60.86;93670.97;528266;28;836;-41
2023/09/15 00:42:34;;;;;;;5.03;4.47;;;;;;;20.61;60.80;93668.78;528221;28;901;-41
2023/09/15 00:42:51;;;;;;;4.40;4.00;;;;;;;20.61;60.86;93665.97;528211;28;939;-41
2023/09/15 00:43:06;;;;;;;4.72;4.20;;;;;;;20.62;60.90;93675.84;528263;28;900;-41
2023/09/15 00:43:22;;;;;;;4.97;4.47;;;;;;;20.62;60.80;93666.72;528194;28;974;-41
2023/09/15 00:43:38;;;;;;;4.63;4.23;;;;;;;20.60;60.85;93670.09;528287;28;859;-41
2023/09/15 00:43:53;;;;;;;4.85;4.35;;;;;;;20.60;60.72;93672.91;528211;28;979;-41
2023/09/15 00:44:08;;;;;;;4.60;4.17;;;;;;;20.60;60.75;93666.56;528209;28;1573;-41
2023/09/15 00:44:24;;;;;;;4.78;4.38;;;;;;;20.60;60.73;93666.56;528291;28;834;-41
2023/09/15 00:44:39;;;;;;;4.93;4.50;;;;;;;20.59;60.77;93673.53;528277;28;792;-41
2023/09/15 00:44:54;;;;;;;5.10;4.60;;;;;;;20.58;60.95;93664.38;528274;28;874;-41
2023/09/15 00:45:14;;;;;;;5.38;4.88;;;;;;;20.57;60.90;93665.75;526651;28;2388;-41
2023/09/15 00:45:29;;;;;;;4.95;4.45;;;;;;;20.58;60.95;93678.41;526070;28;884;-41
2023/09/15 00:45:45;;;;;;;5.07;4.57;;;;;;;20.56;61.01;93669.88;526004;28;864;-41
2023/09/15 00:46:02;;;;;;;5.35;4.85;;;;;;;20.56;61.06;93675.47;525910;28;966;-41
2023/09/15 00:46:18;;;;;;;5.25;4.75;;;;;;;20.49;61.07;93658.91;525991;28;876;-41
2023/09/15 00:46:34;;;;;;;5.65;5.05;;;;;;;20.57;61.21;93674.16;526004;28;1058;-41
2023/09/15 00:46:49;;;;;;;5.40;4.80;;;;;;;20.56;61.25;93666.31;525940;28;852;-41
2023/09/15 00:47:05;;;;;;;5.97;4.60;;;;;;;20.57;61.27;93668.53;525895;28;988;-41
2023/09/15 00:47:20;;;;;;;6.00;4.72;;;;;;;20.56;61.40;93669.88;523857;28;816;-41
2023/09/15 00:47:38;;;;;;;6.00;5.00;;;;;;;20.56;61.33;93671.94;524596;28;932;-41
2023/09/15 00:47:57;;;;;;;5.68;5.05;;;;;;;20.55;61.43;93668.41;526041;28;821;-41
2023/09/15 00:48:14;;;;;;;4.95;4.50;;;;;;;20.56;61.47;93667.06;525929;28;970;-41
2023/09/15 00:48:30;;;;;;;6.50;4.82;;;;;;;20.57;61.42;93665.00;523911;28;899;-41
2023/09/15 00:48:45;;;;;;;6.30;4.80;;;;;;;20.56;61.39;93669.13;523886;28;880;-41
2023/09/15 00:49:01;;;;;;;5.00;4.50;;;;;;;20.55;61.47;93668.41;523870;28;887;-41
2023/09/15 00:49:16;;;;;;;4.93;4.50;;;;;;;20.56;61.50;93666.31;523159;28;1043;-41
2023/09/15 00:49:32;;;;;;;5.18;4.68;;;;;;;20.56;61.49;93675.47;523858;28;829;-41
2023/09/15 00:49:47;;;;;;;5.40;4.77;;;;;;;20.56;61.46;93672.69;523800;28;868;-41
2023/09/15 00:50:03;;;;;;;5.70;4.90;;;;;;;20.56;61.54;93671.94;523836;28;880;-41
2023/09/15 00:50:22;;;;;;;5.30;4.68;;;;;;;20.54;61.52;93663.41;524477;28;911;-41
2023/09/15 00:50:37;;;;;;;6.80;4.40;;;;;;;20.57;61.56;93667.81;525934;28;931;-41
2023/09/15 00:50:52;;;;;;;7.23;4.63;;;;;;;20.56;61.47;93667.06;525917;28;876;-41
2023/09/15 00:51:08;;;;;;;5.88;4.82;;;;;;;20.56;61.47;93667.06;525991;28;806;-40
2023/09/15 00:51:24;;;;;;;5.37;4.83;;;;;;;20.57;61.41;93665.75;525997;28;906;-41
2023/09/15 00:51:40;;;;;;;5.20;4.70;;;;;;;20.56;61.49;93672.69;523903;28;919;-41
2023/09/15 00:51:55;;;;;;;5.10;4.53;;;;;;;20.56;61.46;93669.88;523744;28;868;-41
2023/09/15 00:52:11;;;;;;;5.27;4.20;;;;;;;20.52;61.35;93661.22;524817;28;789;-41
2023/09/15 00:52:27;;;;;;;5.82;4.68;;;;;;;20.57;61.57;93667.81;525927;28;948;-41
2023/09/15 00:52:49;;;;;;;5.78;5.18;;;;;;;20.57;61.45;93671.34;526021;28;809;-41
2023/09/15 00:53:08;;;;;;;6.63;4.85;;;;;;;20.57;61.31;93673.41;525971;28;904;-41
2023/09/15 00:53:24;;;;;;;5.90;4.70;;;;;;;20.47;61.37;93653.16;523894;28;825;-41
2023/09/15 00:53:39;;;;;;;5.50;4.97;;;;;;;20.58;61.30;93670.00;525709;28;916;-41
2023/09/15 00:53:56;;;;;;;4.90;4.50;;;;;;;20.57;61.31;93671.34;526026;28;800;-41
2023/09/15 00:54:12;;;;;;;4.78;4.28;;;;;;;20.58;61.27;93670.00;525910;28;923;-41
2023/09/15 00:54:28;;;;;;;5.30;4.75;;;;;;;20.57;61.31;93676.97;525891;28;1008;-41
2023/09/15 00:54:43;;;;;;;5.32;4.82;;;;;;;20.54;61.16;93658.53;523849;28;933;-41
2023/09/15 00:54:59;;;;;;;5.13;4.68;;;;;;;20.58;61.29;93678.41;521836;28;801;-41
2023/09/15 00:55:15;;;;;;;6.68;4.70;;;;;;;20.50;61.18;93655.47;522589;28;985;-41
2023/09/15 00:55:33;;;;;;;5.97;4.53;;;;;;;20.59;61.26;93682.69;523896;28;801;-41
2023/09/15 00:55:51;;;;;;;4.80;4.40;;;;;;;20.58;61.22;93675.59;521774;28;892;-41
2023/09/15 00:56:08;;;;;;;5.18;4.22;;;;;;;20.59;61.16;93673.53;521795;28;809;-41
2023/09/15 00:56:24;;;;;;;5.97;4.30;;;;;;;20.59;61.00;93674.28;521836;28;1099;-41
2023/09/15 00:56:40;;;;;;;5.95;4.50;;;;;;;20.56;61.08;93672.69;521720;28;905;-41
2023/09/15 00:56:56;;;;;;;5.22;4.40;;;;;;;20.60;60.96;93672.19;523307;28;876;-41
2023/09/15 00:57:11;;;;;;;4.65;4.25;;;;;;;20.60;60.87;93672.19;523820;28;900;-41
2023/09/15 00:57:27;;;;;;;4.53;4.13;;;;;;;20.60;61.01;93670.09;525321;28;908;-41
2023/09/15 00:57:42;;;;;;;4.93;4.43;;;;;;;20.60;61.04;93675.72;525995;28;939;-41
2023/09/15 00:57:59;;;;;;;7.25;4.80;;;;;;;20.61;61.13;93674.41;525894;28;1975;-41
2023/09/15 00:58:19;;;;;;;8.05;4.97;;;;;;;20.36;61.10;93641.31;526050;28;818;-41
2023/09/15 00:58:36;;;;;;;5.43;4.28;;;;;;;20.60;61.22;93675.72;526136;28;943;-41
2023/09/15 00:58:51;;;;;;;5.15;4.65;;;;;;;20.59;61.14;93681.94;525928;28;970;-41
2023/09/15 00:59:08;;;;;;;5.23;4.73;;;;;;;20.59;61.11;93677.06;525971;28;813;-41
2023/09/15 00:59:24;;;;;;;6.18;4.30;;;;;;;20.59;61.12;93681.94;525908;28;849;-41
2023/09/15 00:59:40;;;;;;;6.47;4.68;;;;;;;20.58;61.13;93674.88;525939;28;848;-41
2023/09/15 00:59:55;;;;;;;5.22;4.72;;;;;;;20.55;61.18;93671.22;526031;28;872;-41
2023/09/15 01:00:14;;;;;;;5.20;4.70;;;;;;;20.57;61.13;93668.53;525859;28;917;-41
2023/09/15 01:00:31;;;;;;;5.50;4.93;;;;;;;20.58;61.22;93670.00;525925;28;868;-41
2023/09/15 01:00:47;;;;;;;5.22;4.72;;;;;;;20.58;61.12;93677.66;526098;28;840;-41
2023/09/15 01:01:06;;;;;;;5.32;4.53;;;;;;;20.58;61.23;93670.00;526110;28;1529;-41
2023/09/15 01:01:21;;;;;;;5.78;4.55;;;;;;;20.59;61.32;93681.94;526113;28;837;-41
2023/09/15 01:01:39;;;;;;;5.70;4.60;;;;;;;20.58;61.40;93674.88;526182;28;901;-41
2023/09/15 01:01:55;;;;;;;4.85;4.43;;;;;;;20.57;61.44;93679.75;526090;28;895;-41
2023/09/15 01:02:12;;;;;;;5.10;4.60;;;;;;;20.57;61.46;93682.56;525941;28;868;-41
2023/09/15 01:02:27;;;;;;;5.47;4.70;;;;;;;20.57;61.52;93674.16;523907;28;931;-41
2023/09/15 01:02:43;;;;;;;4.77;4.27;;;;;;;20.55;61.47;93676.84;523900;28;960;-41
2023/09/15 01:02:58;;;;;;;6.00;5.17;;;;;;;20.57;61.50;93676.22;521829;28;786;-41
2023/09/15 01:03:18;;;;;;;7.97;5.70;;;;;;;20.56;61.47;93672.69;519806;28;821;-41
2023/09/15 01:03:36;;;;;;;5.03;4.50;;;;;;;20.57;61.45;93681.81;517690;28;1698;-41
2023/09/15 01:03:53;;;;;;;5.35;4.88;;;;;;;20.57;61.42;93684.63;517677;28;1424;-41
2023/09/15 01:04:08;;;;;;;7.05;5.18;;;;;;;20.56;61.46;93671.94;519280;28;968;-41
2023/09/15 01:04:27;;;;;;;6.28;4.47;;;;;;;20.56;61.47;93678.28;521407;28;818;-41
2023/09/15 01:04:42;;;;;;;4.25;3.85;;;;;;;20.56;61.42;93674.75;521716;28;959;-41
2023/09/15 01:04:58;;;;;;;4.63;4.00;;;;;;;20.56;61.53;93686.69;523625;28;915;-41
2023/09/15 01:05:19;;;;;;;4.75;4.20;;;;;;;20.55;61.42;93681.72;525627;28;950;-41
2023/09/15 01:05:35;;;;;;;4.97;4.47;;;;;;;20.55;61.57;93678.91;525930;28;1783;-41
2023/09/15 01:05:51;;;;;;;5.30;4.60;;;;;;;20.54;61.61;93680.97;525870;28;953;-41
2023/09/15 01:06:07;;;;;;;5.13;4.30;;;;;;;20.55;61.55;93681.72;525923;28;864;-41
2023/09/15 01:06:23;;;;;;;5.10;4.38;;;;;;;20.53;61.59;93685.09;525945;28;947;-41
2023/09/15 01:06:38;;;;;;;6.28;4.57;;;;;;;20.54;61.71;93680.22;525914;28;884;-41
2023/09/15 01:06:55;;;;;;;6.37;4.83;;;;;;;20.52;61.60;93683.66;523901;28;979;-41
2023/09/15 01:07:10;;;;;;;5.35;4.85;;;;;;;20.51;61.68;93687.06;521699;28;930;-41
2023/09/15 01:07:26;;;;;;;5.00;4.50;;;;;;;20.47;61.56;93687.53;522954;28;916;-41
2023/09/15 01:07:43;;;;;;;6.28;4.57;;;;;;;20.34;61.70;93671.31;521812;28;799;-41
2023/09/15 01:07:59;;;;;;;6.60;4.80;;;;;;;20.45;61.73;93684.63;519658;28;977;-41
2023/09/15 01:08:15;;;;;;;5.38;4.60;;;;;;;20.44;61.68;93685.97;519722;28;1031;-41
2023/09/15 01:08:31;;;;;;;5.03;4.45;;;;;;;20.42;61.77;93678.16;519758;28;913;-41
2023/09/15 01:08:47;;;;;;;5.18;4.68;;;;;;;20.43;61.73;93687.31;520614;28;967;-41
2023/09/15 01:09:05;;;;;;;5.60;5.00;;;;;;;20.42;61.74;93685.13;521836;28;865;-41
2023/09/15 01:09:22;;;;;;;5.37;4.87;;;;;;;20.41;61.56;93684.38;522957;28;845;-40
2023/09/15 01:09:39;;;;;;;5.78;4.80;;;;;;;20.34;61.81;93679.72;525321;28;912;-41
2023/09/15 01:09:54;;;;;;;5.20;4.43;;;;;;;20.38;61.79;93680.72;526057;28;880;-41
2023/09/15 01:10:11;;;;;;;4.72;4.25;;;;;;;20.36;61.80;93683.38;525964;28;860;-41
2023/09/15 01:10:26;;;;;;;5.40;4.80;;;;;;;20.30;61.95;93685.09;525964;28;916;-41
2023/09/15 01:10:42;;;;;;;5.30;4.80;;;;;;;20.33;61.91;93690.22;525957;28;946;-41
2023/09/15 01:11:01;;;;;;;5.22;4.65;;;;;;;20.32;62.07;93691.56;525947;28;801;-41
2023/09/15 01:11:16;;;;;;;5.80;4.95;;;;;;;20.26;62.38;93684.84;525936;28;1619;-41
2023/09/15 01:11:34;;;;;;;5.32;4.82;;;;;;;20.25;62.36;93683.38;525925;28;842;-41
2023/09/15 01:11:51;;;;;;;4.90;4.40;;;;;;;20.23;62.50;93686.03;525888;28;947;-41
2023/09/15 01:12:07;;;;;;;5.40;4.90;;;;;;;20.21;62.55;93685.91;526036;28;888;-41
2023/09/15 01:12:23;;;;;;;5.43;4.93;;;;;;;20.21;62.43;93686.66;526072;28;948;-41
2023/09/15 01:12:38;;;;;;;5.10;4.70;;;;;;;20.18;62.51;93681.53;526069;28;885;-41
2023/09/15 01:12:54;;;;;;;5.40;4.78;;;;;;;20.20;62.52;93693.63;526110;28;923;-41
2023/09/15 01:13:10;;;;;;;6.50;5.40;;;;;;;20.20;62.55;93693.63;525952;28;864;-41
2023/09/15 01:13:26;;;;;;;5.90;5.30;;;;;;;20.19;62.46;93683.72;525909;28;864;-41
2023/09/15 01:13:41;;;;;;;5.22;4.72;;;;;;;20.18;62.56;93685.03;525883;28;877;-41
2023/09/15 01:13:57;;;;;;;5.00;4.50;;;;;;;20.19;62.62;93686.50;525908;28;923;-41
2023/09/15 01:14:12;;;;;;;6.07;4.80;;;;;;;20.19;62.61;93686.50;525946;28;805;-41
2023/09/15 01:14:27;;;;;;;6.95;5.38;;;;;;;20.18;62.66;93685.03;525930;28;872;-40
2023/09/15 01:14:43;;;;;;;6.73;5.47;;;;;;;20.19;62.75;93685.78;525959;28;866;-41
2023/09/15 01:14:58;;;;;;;5.78;4.95;;;;;;;20.19;62.78;93688.56;523902;28;809;-41
2023/09/15 01:15:15;;;;;;;5.77;4.77;;;;;;;20.18;62.79;93687.13;523914;28;865;-41
2023/09/15 01:15:41;;;;;;;5.40;4.82;;;;;;;20.19;62.80;93680.16;522258;28;1049;-41
2023/09/15 01:16:05;;;;;;;5.70;5.13;;;;;;;20.20;62.77;93687.25;521749;28;897;-42
2023/09/15 01:16:34;;;;;;;6.28;5.38;;;;;;;20.09;62.66;93669.06;519742;28;853;-41
2023/09/15 01:16:57;;;;;;;4.47;4.07;;;;;;;20.20;62.68;93688.00;520330;28;912;-41
2023/09/15 01:17:19;;;;;;;6.00;5.10;;;;;;;20.21;62.61;93686.66;519662;28;905;-41
2023/09/15 01:18:14;;;;;;;7.03;4.93;;;;;;;20.21;62.63;93683.84;519759;28;932;-41
2023/09/15 01:18:46;;;;;;;5.32;4.47;;;;;;;20.21;62.58;93683.84;521693;28;964;-41
2023/09/15 01:19:54;;;;;;;5.50;4.90;;;;;;;20.23;62.52;93686.78;524128;28;896;-41
2023/09/15 01:20:14;;;;;;;5.35;4.85;;;;;;;20.24;62.44;93687.53;523567;28;898;-41
2023/09/15 01:21:07;;;;;;;5.32;4.82;;;;;;;20.24;62.47;93687.53;523656;28;813;-41
2023/09/15 01:21:37;;;;;;;5.65;5.05;;;;;;;20.24;62.35;93690.31;526053;28;970;-41
2023/09/15 01:22:12;;;;;;;5.70;4.68;;;;;;;20.22;62.30;93696.56;526013;28;1082;-41
2023/09/15 01:23:00;;;;;;;5.03;4.45;;;;;;;20.22;62.21;93693.00;526084;28;824;-41
2023/09/15 01:23:26;;;;;;;5.32;4.63;;;;;;;20.22;62.16;93693.00;525423;28;1786;-41
2023/09/15 01:23:53;;;;;;;4.95;4.22;;;;;;;20.22;62.21;93696.56;525886;28;869;-41
2023/09/15 01:24:20;;;;;;;4.50;4.10;;;;;;;20.20;62.09;93692.84;525871;28;1772;-41